createdAt,value
2022-08-07T00:04:00.590Z,102654.41
2022-08-07T00:09:00.303Z,102647.50
2022-08-07T00:14:13.039Z,102649.50
2022-08-07T00:19:09.526Z,102645.38
2022-08-07T00:24:18.357Z,102634.94
2022-08-07T00:29:15.414Z,102645.06
2022-08-07T00:34:12.357Z,102631.84
2022-08-07T00:39:16.421Z,102633.84
2022-08-07T00:44:15.210Z,102630.59
2022-08-07T00:49:11.630Z,102629.91
2022-08-07T00:54:22.436Z,102627.44
2022-08-07T00:59:20.206Z,102626.63
2022-08-07T01:04:30.309Z,102623.41
2022-08-07T01:10:05.200Z,102636.22
2022-08-07T01:14:45.390Z,102627.47
2022-08-07T01:19:53.891Z,102626.69
2022-08-07T01:24:50.908Z,102621.69
2022-08-07T01:29:47.363Z,102624.47
2022-08-07T01:34:47.296Z,102623.78
2022-08-07T01:39:46.443Z,102622.25
2022-08-07T01:44:43.450Z,102617.03
2022-08-07T01:49:44.417Z,102619.03
2022-08-07T01:54:41.266Z,102626.47
2022-08-07T01:59:43.924Z,102623.09
2022-08-07T02:04:52.633Z,102618.97
2022-08-07T02:09:58.728Z,102617.44
2022-08-07T02:14:56.467Z,102612.41
2022-08-07T02:20:04.797Z,102626.78
2022-08-07T02:25:07.212Z,102612.69
2022-08-07T02:30:10.699Z,102603.97
2022-08-07T02:35:11.037Z,102599.72
2022-08-07T02:40:31.146Z,102601.72
2022-08-07T02:46:00.352Z,102597.50
2022-08-07T02:50:45.895Z,102600.44
2022-08-07T02:56:03.101Z,102603.31
2022-08-07T03:01:00.104Z,102600.03
2022-08-07T03:05:56.709Z,102593.88
2022-08-07T03:10:54.730Z,102591.47
2022-08-07T03:15:56.431Z,102599.56
2022-08-07T03:20:55.184Z,102590.84
2022-08-07T03:25:59.805Z,102585.66
2022-08-07T03:31:16.471Z,102580.50
2022-08-07T03:36:14.718Z,102578.94
2022-08-07T03:41:12.428Z,102579.09
2022-08-07T03:46:18.227Z,102585.41
2022-08-07T03:51:14.827Z,102583.75
2022-08-07T03:56:13.628Z,102594.66
2022-08-07T04:01:11.309Z,102588.59
2022-08-07T04:06:08.549Z,102600.31
2022-08-07T04:12:23.412Z,102603.97
2022-08-07T04:16:43.077Z,102610.16
2022-08-07T04:21:59.681Z,102610.16
2022-08-07T04:27:05.250Z,102615.53
2022-08-07T04:32:11.940Z,102611.78
2022-08-07T04:37:20.160Z,102615.28
2022-08-07T04:42:17.111Z,102620.28
2022-08-07T04:47:57.222Z,102619.06
2022-08-07T04:52:51.290Z,102633.00
2022-08-07T04:58:24.427Z,102637.81
2022-08-07T05:03:31.130Z,102627.41
2022-08-07T05:08:59.672Z,102627.88
2022-08-07T05:14:52.441Z,102631.53
2022-08-07T05:19:12.494Z,102629.88
2022-08-07T05:24:12.461Z,102639.09
2022-08-07T05:29:10.799Z,102634.94
2022-08-07T05:34:11.101Z,102642.47
2022-08-07T05:40:05.793Z,102641.91
2022-08-07T05:44:29.658Z,102636.88
2022-08-07T05:49:26.256Z,102641.69
2022-08-07T05:54:44.020Z,102640.28
2022-08-07T05:59:57.143Z,102632.44
2022-08-07T06:04:55.872Z,102627.97
2022-08-07T06:10:04.516Z,102624.59
2022-08-07T06:15:05.185Z,102623.16
2022-08-07T06:20:03.595Z,102623.94
2022-08-07T06:25:01.752Z,102617.03
2022-08-07T06:30:00.306Z,102611.59
2022-08-07T06:34:57.153Z,102614.25
2022-08-07T06:40:16.505Z,102612.41
2022-08-07T06:45:11.438Z,102622.13
2022-08-07T06:50:08.309Z,102616.09
2022-08-07T06:55:53.646Z,102624.44
2022-08-07T07:00:47.145Z,102619.69
2022-08-07T07:06:03.484Z,102616.16
2022-08-07T07:11:14.526Z,102615.75
2022-08-07T07:16:20.944Z,102621.88
2022-08-07T07:21:19.888Z,102627.25
2022-08-07T07:26:35.061Z,102621.06
2022-08-07T07:31:39.918Z,102622.50
2022-08-07T07:36:40.345Z,102627.84
2022-08-07T07:42:01.835Z,102619.19
2022-08-07T07:46:55.330Z,102617.72
2022-08-07T07:51:58.633Z,102619.06
2022-08-07T07:56:57.472Z,102617.31
2022-08-07T08:02:01.634Z,102620.91
2022-08-07T08:07:02.849Z,102608.03
2022-08-07T08:12:05.182Z,102603.16
2022-08-07T08:17:32.462Z,102593.84
2022-08-07T08:22:37.733Z,102590.06
2022-08-07T08:27:57.402Z,102590.69
2022-08-07T08:32:59.522Z,102584.13
2022-08-07T08:38:00.532Z,102589.03
2022-08-07T08:43:16.167Z,102584.75
2022-08-07T08:48:15.519Z,102587.84
2022-08-07T08:53:19.685Z,102580.25
2022-08-07T08:58:20.265Z,102575.09
2022-08-07T09:03:48.051Z,102569.56
2022-08-07T09:09:09.548Z,102570.19
2022-08-07T09:14:17.427Z,102580.53
2022-08-07T09:19:51.268Z,102571.19
2022-08-07T09:24:55.560Z,102565.44
2022-08-07T09:30:04.372Z,102565.06
2022-08-07T09:36:04.206Z,102563.84
2022-08-07T09:40:27.063Z,102566.28
2022-08-07T09:47:37.116Z,102552.28
2022-08-07T09:52:09.661Z,102549.97
2022-08-07T09:56:39.284Z,102551.22
2022-08-07T10:01:51.718Z,102542.72
2022-08-07T10:06:56.960Z,102537.06
2022-08-07T10:12:21.502Z,102530.31
2022-08-07T10:17:18.466Z,102527.84
2022-08-07T10:22:17.125Z,102520.59
2022-08-07T10:27:17.872Z,102526.47
2022-08-07T10:32:51.348Z,102515.47
2022-08-07T10:38:15.451Z,102511.88
2022-08-07T10:43:34.266Z,102494.28
2022-08-07T10:48:35.586Z,102506.75
2022-08-07T10:54:04.642Z,102491.00
2022-08-07T10:59:10.167Z,102487.81
2022-08-07T11:04:31.492Z,102481.88
2022-08-07T11:10:07.678Z,102480.81
2022-08-07T11:15:00.672Z,102476.47
2022-08-07T11:20:06.619Z,102470.31
2022-08-07T11:25:26.563Z,102469.81
2022-08-07T11:30:41.552Z,102462.78
2022-08-07T11:35:59.494Z,102467.06
2022-08-07T11:41:04.435Z,102463.09
2022-08-07T11:46:10.936Z,102457.41
2022-08-07T11:51:35.076Z,102460.81
2022-08-07T11:56:41.436Z,102453.53
2022-08-07T12:02:07.100Z,102445.78
2022-08-07T12:07:27.614Z,102448.06
2022-08-07T12:12:39.269Z,102444.38
2022-08-07T12:17:59.365Z,102422.16
2022-08-07T12:23:14.677Z,102427.00
2022-08-07T12:28:24.116Z,102424.13
2022-08-07T12:33:30.833Z,102408.19
2022-08-07T12:38:57.305Z,102417.47
2022-08-07T12:44:04.233Z,102415.19
2022-08-07T12:49:39.637Z,102409.50
2022-08-07T12:54:41.423Z,102407.09
2022-08-07T12:59:54.220Z,102407.66
2022-08-07T13:05:15.159Z,102399.66
2022-08-07T13:10:39.671Z,102405.22
2022-08-07T13:15:47.692Z,102403.81
2022-08-07T13:20:51.032Z,102389.53
2022-08-07T13:26:00.889Z,102394.13
2022-08-07T13:31:06.480Z,102386.69
2022-08-07T13:36:17.402Z,102382.13
2022-08-07T13:41:35.060Z,102379.81
2022-08-07T13:46:33.771Z,102383.25
2022-08-07T13:52:22.682Z,102374.56
2022-08-07T13:56:55.907Z,102379.69
2022-08-07T14:02:10.418Z,102364.69
2022-08-07T14:07:09.410Z,102352.03
2022-08-07T14:12:10.625Z,102356.00
2022-08-07T14:17:32.441Z,102347.88
2022-08-07T14:22:34.752Z,102345.44
2022-08-07T14:28:10.383Z,102344.72
2022-08-07T14:32:56.293Z,102339.03
2022-08-07T14:38:05.594Z,102333.47
2022-08-07T14:43:58.902Z,102337.31
2022-08-07T14:48:32.603Z,102340.06
2022-08-07T14:54:08.780Z,102330.06
2022-08-07T14:58:54.948Z,102332.94
2022-08-07T15:03:52.484Z,102324.25
2022-08-07T15:14:12.405Z,102313.53
2022-08-07T15:19:10.038Z,102313.09
2022-08-07T15:25:14.460Z,102316.97
2022-08-07T15:30:10.912Z,102310.69
2022-08-07T15:34:56.825Z,102307.41
2022-08-07T15:40:01.070Z,102301.66
2022-08-07T15:44:57.597Z,102303.66
2022-08-07T15:50:05.813Z,102293.66
2022-08-07T15:55:04.149Z,102292.69
2022-08-07T16:00:06.319Z,102276.28
2022-08-07T16:05:04.431Z,102279.59
2022-08-07T16:10:14.952Z,102277.44
2022-08-07T16:15:57.806Z,102281.47
2022-08-07T16:21:44.458Z,102264.91
2022-08-07T16:26:30.818Z,102270.66
2022-08-07T16:31:51.451Z,102263.78
2022-08-07T16:38:03.893Z,102266.63
2022-08-07T16:42:52.299Z,102262.25
2022-08-07T16:48:13.891Z,102277.06
2022-08-07T16:54:02.196Z,102272.66
2022-08-07T16:59:15.214Z,102276.06
